createdAt,value
2022-09-13T00:01:03.419Z,91.40
2022-09-13T00:03:30.145Z,91.50
2022-09-13T00:05:56.841Z,91.50
2022-09-13T00:08:23.837Z,91.60
2022-09-13T00:10:50.550Z,91.90
2022-09-13T00:13:18.094Z,92.00
2022-09-13T00:15:47.716Z,92.00
2022-09-13T00:18:15.352Z,92.00
2022-09-13T00:20:42.081Z,92.30
2022-09-13T00:23:09.774Z,92.30
2022-09-13T00:25:36.485Z,92.20
2022-09-13T00:28:03.996Z,92.10
2022-09-13T00:30:30.786Z,92.20
2022-09-13T00:32:57.844Z,92.20
2022-09-13T00:35:24.483Z,92.20
2022-09-13T00:37:51.129Z,92.40
2022-09-13T00:40:18.040Z,92.50
2022-09-13T00:42:44.741Z,92.50
2022-09-13T00:45:11.313Z,92.50
2022-09-13T00:47:40.568Z,92.60
2022-09-13T00:50:14.460Z,92.70
2022-09-13T00:52:46.770Z,92.80
2022-09-13T00:55:38.317Z,93.20
2022-09-13T00:58:10.024Z,92.90
2022-09-13T01:00:37.573Z,92.90
2022-09-13T01:03:11.113Z,93.00
2022-09-13T01:05:45.389Z,93.10
2022-09-13T01:08:18.063Z,93.10
2022-09-13T01:10:45.269Z,93.20
2022-09-13T01:13:23.036Z,93.20
2022-09-13T01:15:49.906Z,93.30
2022-09-13T01:18:17.012Z,93.40
2022-09-13T01:21:04.533Z,93.30
2022-09-13T01:23:51.065Z,93.50
2022-09-13T01:27:11.194Z,93.60
2022-09-13T01:29:59.175Z,93.70
2022-09-13T01:32:56.238Z,93.50
2022-09-13T01:35:39.480Z,93.70
2022-09-13T01:38:27.865Z,93.80
2022-09-13T01:41:15.656Z,93.80
2022-09-13T01:44:01.539Z,93.90
2022-09-13T01:46:58.163Z,93.90
2022-09-13T01:49:30.462Z,94.40
2022-09-13T01:52:23.606Z,94.10
2022-09-13T01:55:11.707Z,94.20
2022-09-13T01:57:48.934Z,94.20
2022-09-13T02:00:18.308Z,94.30
2022-09-13T02:03:06.022Z,94.30
2022-09-13T02:05:56.100Z,94.50
2022-09-13T02:08:33.335Z,94.70
2022-09-13T02:11:13.218Z,94.70
2022-09-13T02:14:07.738Z,94.70
2022-09-13T02:16:39.245Z,94.90
2022-09-13T02:19:18.479Z,94.90
2022-09-13T02:21:51.548Z,95.00
2022-09-13T02:24:22.920Z,95.10
2022-09-13T02:26:52.864Z,95.20
2022-09-13T02:29:24.720Z,95.20
2022-09-13T02:32:16.409Z,95.30
2022-09-13T02:34:52.476Z,95.30
2022-09-13T02:37:20.108Z,95.30
2022-09-13T02:39:57.957Z,95.40
2022-09-13T02:42:34.289Z,95.40
2022-09-13T02:45:01.166Z,95.50
2022-09-13T02:48:00.127Z,95.50
2022-09-13T02:50:44.543Z,95.60
2022-09-13T02:53:38.139Z,95.60
2022-09-13T02:56:20.418Z,95.60
2022-09-13T02:59:01.323Z,95.70
2022-09-13T03:01:28.430Z,95.80
2022-09-13T03:03:55.302Z,95.80
2022-09-13T03:06:29.688Z,95.80
2022-09-13T03:09:03.889Z,95.80
2022-09-13T03:11:51.438Z,95.90
2022-09-13T03:14:29.035Z,95.80
2022-09-13T03:17:34.269Z,96.00
2022-09-13T03:20:11.334Z,96.10
2022-09-13T03:22:55.758Z,96.10
2022-09-13T03:25:50.049Z,96.10
2022-09-13T03:28:22.715Z,96.10
2022-09-13T03:31:08.767Z,96.30
2022-09-13T03:33:46.133Z,96.10
2022-09-13T03:36:25.686Z,96.10
2022-09-13T03:39:17.594Z,96.10
2022-09-13T03:41:51.184Z,96.20
2022-09-13T03:44:21.796Z,96.20
2022-09-13T03:46:51.867Z,96.20
2022-09-13T03:49:22.889Z,96.40
2022-09-13T03:51:51.470Z,96.30
2022-09-13T03:54:26.015Z,96.30
2022-09-13T03:57:08.652Z,96.40
2022-09-13T03:59:39.100Z,96.50
2022-09-13T04:02:07.974Z,96.60
2022-09-13T04:04:34.655Z,96.70
2022-09-13T04:07:03.539Z,96.70
2022-09-13T04:09:31.482Z,96.70
2022-09-13T04:11:58.270Z,96.80
2022-09-13T04:14:26.903Z,96.80
2022-09-13T04:16:55.109Z,96.90
2022-09-13T04:19:22.746Z,96.90
2022-09-13T04:21:53.902Z,96.90
2022-09-13T04:24:21.043Z,97.00
2022-09-13T04:26:51.350Z,97.00
2022-09-13T04:29:18.670Z,97.10
2022-09-13T04:31:49.756Z,97.10
2022-09-13T04:34:19.913Z,97.10
2022-09-13T04:36:47.645Z,97.20
2022-09-13T04:39:14.462Z,97.20
2022-09-13T04:41:48.493Z,97.40
2022-09-13T04:44:17.202Z,97.30
2022-09-13T04:49:37.818Z,97.40
2022-09-13T04:52:04.507Z,97.60
2022-09-13T04:54:31.245Z,97.50
2022-09-13T04:56:57.973Z,97.50
2022-09-13T04:59:24.671Z,97.50
2022-09-13T05:01:51.451Z,97.60
2022-09-13T05:04:18.328Z,97.70
2022-09-13T05:06:45.216Z,97.70
2022-09-13T05:09:14.067Z,97.70
2022-09-13T05:11:40.930Z,97.60
2022-09-13T05:14:10.256Z,97.70
2022-09-13T05:16:36.944Z,97.80
2022-09-13T05:19:04.327Z,97.80
2022-09-13T05:21:31.211Z,97.90
2022-09-13T05:23:58.368Z,97.80
2022-09-13T05:26:27.774Z,97.80
2022-09-13T05:28:54.532Z,97.80
2022-09-13T05:31:28.161Z,98.20
2022-09-13T05:34:01.621Z,97.90
2022-09-13T05:36:28.513Z,98.00
2022-09-13T05:39:12.617Z,98.00
2022-09-13T05:41:42.642Z,98.00
2022-09-13T05:44:13.142Z,98.00
2022-09-13T05:46:41.262Z,97.90
2022-09-13T05:49:07.874Z,98.00
2022-09-13T05:51:34.656Z,98.00
2022-09-13T05:54:01.306Z,98.10
2022-09-13T05:56:29.365Z,98.10
2022-09-13T05:58:56.563Z,98.20
2022-09-13T06:01:26.106Z,98.30
2022-09-13T06:04:02.192Z,98.30
2022-09-13T06:06:28.795Z,98.40
2022-09-13T06:08:56.980Z,98.50
2022-09-13T06:11:25.580Z,98.50
2022-09-13T06:13:53.170Z,98.40
2022-09-13T06:16:20.911Z,98.50
2022-09-13T06:18:48.945Z,98.40
2022-09-13T06:21:24.673Z,98.50
2022-09-13T06:23:54.538Z,98.50
2022-09-13T06:26:26.862Z,98.40
2022-09-13T06:28:55.917Z,98.50
2022-09-13T06:31:24.868Z,98.40
2022-09-13T06:33:57.530Z,98.40
2022-09-13T06:36:24.365Z,98.40
2022-09-13T06:38:51.353Z,98.50
2022-09-13T06:41:20.257Z,98.40
2022-09-13T06:43:48.017Z,98.40
2022-09-13T06:46:19.469Z,98.50
2022-09-13T06:48:48.823Z,98.50
2022-09-13T06:51:18.744Z,98.60
2022-09-13T06:53:47.192Z,98.70
2022-09-13T06:56:19.698Z,98.70
2022-09-13T06:58:48.651Z,98.60
2022-09-13T07:01:24.262Z,98.60
2022-09-13T07:03:54.256Z,98.60
2022-09-13T07:06:24.173Z,98.60
2022-09-13T07:08:52.270Z,98.90
2022-09-13T07:11:21.121Z,98.60
2022-09-13T07:13:58.046Z,98.90
2022-09-13T07:16:30.095Z,98.50
2022-09-13T07:19:02.011Z,98.50
2022-09-13T07:21:29.552Z,98.40
2022-09-13T07:23:56.638Z,98.40
2022-09-13T07:26:24.004Z,98.40
2022-09-13T07:28:53.943Z,98.40
2022-09-13T07:31:26.731Z,98.60
2022-09-13T07:33:58.962Z,98.60
2022-09-13T07:36:26.771Z,98.60
2022-09-13T07:38:53.796Z,98.60
2022-09-13T07:41:22.958Z,98.70
2022-09-13T07:43:51.736Z,98.60
2022-09-13T07:46:21.356Z,98.60
2022-09-13T07:48:49.711Z,98.60
2022-09-13T07:51:18.507Z,99.00
2022-09-13T07:53:46.480Z,98.60
2022-09-13T07:56:21.099Z,98.50
2022-09-13T07:58:49.911Z,98.50
2022-09-13T08:01:22.334Z,98.50
2022-09-13T08:03:56.218Z,98.40
2022-09-13T08:06:24.373Z,98.20
2022-09-13T08:08:51.275Z,98.00
2022-09-13T08:11:21.036Z,97.90
2022-09-13T08:13:48.812Z,97.90
2022-09-13T08:16:17.360Z,97.70
2022-09-13T08:18:46.091Z,97.60
2022-09-13T08:21:13.632Z,97.60
2022-09-13T08:23:40.749Z,97.50
2022-09-13T08:26:08.532Z,97.50
2022-09-13T08:28:36.824Z,97.40
2022-09-13T08:31:17.008Z,97.10
2022-09-13T08:33:46.653Z,97.00
2022-09-13T08:36:14.335Z,97.00
2022-09-13T08:38:48.242Z,97.00
2022-09-13T08:41:44.747Z,96.90
2022-09-13T08:44:43.150Z,97.00
2022-09-13T08:47:35.046Z,96.90
2022-09-13T08:50:06.490Z,96.80
2022-09-13T08:53:01.338Z,96.70
2022-09-13T08:55:53.188Z,96.60
2022-09-13T08:58:28.998Z,96.70
2022-09-13T09:01:14.289Z,96.80
2022-09-13T09:03:49.011Z,96.60
2022-09-13T09:06:17.071Z,96.60
2022-09-13T09:08:50.809Z,96.50
2022-09-13T09:11:44.534Z,96.60
2022-09-13T09:14:34.307Z,96.60
2022-09-13T09:17:07.408Z,96.60
2022-09-13T09:19:39.236Z,96.30
2022-09-13T09:22:18.139Z,96.30
2022-09-13T09:24:48.829Z,96.20
2022-09-13T09:27:18.836Z,96.00
2022-09-13T09:30:00.912Z,95.30
2022-09-13T09:32:58.205Z,94.80
2022-09-13T09:35:51.852Z,94.70
2022-09-13T09:38:31.681Z,94.90
2022-09-13T09:41:07.942Z,94.60
2022-09-13T09:43:59.766Z,94.30
2022-09-13T09:46:30.422Z,94.50
2022-09-13T09:49:39.973Z,94.80
2022-09-13T09:52:11.251Z,94.20
2022-09-13T09:54:39.088Z,93.70
2022-09-13T09:57:08.133Z,94.30
2022-09-13T09:59:36.146Z,94.20
2022-09-13T10:02:20.363Z,94.30
2022-09-13T10:04:58.929Z,94.20
2022-09-13T10:07:28.995Z,94.00
2022-09-13T10:10:00.246Z,94.20
2022-09-13T10:12:34.161Z,94.20
2022-09-13T10:15:34.285Z,94.10
2022-09-13T10:18:33.377Z,93.70
2022-09-13T10:21:18.115Z,93.90
2022-09-13T10:23:50.436Z,93.50
2022-09-13T10:26:21.211Z,93.70
2022-09-13T10:28:48.360Z,93.50
2022-09-13T10:31:17.843Z,93.10
2022-09-13T10:33:52.398Z,92.30
2022-09-13T10:36:48.267Z,91.70
2022-09-13T10:39:18.055Z,91.40
2022-09-13T10:41:54.480Z,90.90
2022-09-13T10:44:33.304Z,90.50
2022-09-13T10:47:04.686Z,89.50
2022-09-13T10:49:52.929Z,85.50
2022-09-13T10:52:34.809Z,83.70
2022-09-13T10:55:19.516Z,82.40
2022-09-13T10:57:54.604Z,82.40
2022-09-13T11:00:25.233Z,81.40
2022-09-13T11:03:10.366Z,80.80
2022-09-13T11:05:42.993Z,81.80
2022-09-13T11:08:26.173Z,80.40
2022-09-13T11:11:11.320Z,78.70
2022-09-13T11:13:44.897Z,77.20
2022-09-13T11:16:15.336Z,76.20
2022-09-13T11:18:44.795Z,75.50
2022-09-13T11:21:49.633Z,74.70
2022-09-13T11:24:33.282Z,75.40
2022-09-13T11:27:14.812Z,75.60
2022-09-13T11:30:19.796Z,73.80
2022-09-13T11:33:07.711Z,72.90
2022-09-13T11:35:48.509Z,73.30
2022-09-13T11:38:21.153Z,72.20
2022-09-13T11:41:09.170Z,71.40
2022-09-13T11:43:48.041Z,70.60
2022-09-13T11:46:40.374Z,71.00
2022-09-13T11:49:32.956Z,69.70
2022-09-13T11:52:06.322Z,70.80
2022-09-13T11:54:35.890Z,70.70
2022-09-13T11:57:11.939Z,69.90
2022-09-13T11:59:54.249Z,67.60
2022-09-13T12:02:37.001Z,67.20
2022-09-13T12:05:23.953Z,65.40
2022-09-13T12:07:57.856Z,63.80
2022-09-13T12:10:30.435Z,64.10
2022-09-13T12:13:01.490Z,63.20
2022-09-13T12:15:40.534Z,62.10
2022-09-13T12:18:15.332Z,61.30
2022-09-13T12:20:50.544Z,60.70
2022-09-13T12:23:37.544Z,60.10
2022-09-13T12:26:09.970Z,59.80
2022-09-13T12:28:44.607Z,60.10
2022-09-13T12:31:16.316Z,60.30
2022-09-13T12:33:43.689Z,60.20
2022-09-13T12:36:36.684Z,60.40
2022-09-13T12:39:37.079Z,59.70
2022-09-13T12:42:28.451Z,59.70
2022-09-13T12:45:19.752Z,60.40
2022-09-13T12:48:20.222Z,60.80
2022-09-13T12:51:15.359Z,60.80
2022-09-13T12:54:15.438Z,60.50
2022-09-13T12:57:01.916Z,60.30
2022-09-13T13:00:06.147Z,59.20
2022-09-13T13:02:38.747Z,57.80
2022-09-13T13:05:21.959Z,57.70
2022-09-13T13:08:20.457Z,57.30
2022-09-13T13:11:11.638Z,56.70
2022-09-13T13:13:46.450Z,56.30
2022-09-13T13:16:24.598Z,56.00
2022-09-13T13:18:57.200Z,55.40
2022-09-13T13:21:31.165Z,55.40
2022-09-13T13:24:15.895Z,54.80
2022-09-13T13:26:43.257Z,54.00
2022-09-13T13:29:22.542Z,54.60
2022-09-13T13:32:03.146Z,54.70
2022-09-13T13:34:50.631Z,54.60
2022-09-13T13:37:20.469Z,54.80
2022-09-13T13:40:08.589Z,55.10
2022-09-13T13:42:38.390Z,55.60
2022-09-13T13:45:16.623Z,55.60
2022-09-13T13:47:54.772Z,54.80
2022-09-13T13:50:21.610Z,54.30
2022-09-13T13:52:48.260Z,55.00
2022-09-13T13:55:33.565Z,55.00
2022-09-13T13:58:12.268Z,54.80
2022-09-13T14:00:47.997Z,53.80
2022-09-13T14:03:51.404Z,55.00
2022-09-13T14:06:39.629Z,54.90
2022-09-13T14:09:39.684Z,55.00
2022-09-13T14:12:15.333Z,55.00
2022-09-13T14:15:21.538Z,54.70
2022-09-13T14:17:59.498Z,54.20
2022-09-13T14:20:26.733Z,54.70
2022-09-13T14:23:18.782Z,55.10
2022-09-13T14:25:46.564Z,54.60
2022-09-13T14:28:19.993Z,53.50
2022-09-13T14:30:47.051Z,53.20
2022-09-13T14:33:30.943Z,53.90
2022-09-13T14:36:16.356Z,53.90
2022-09-13T14:38:55.268Z,53.40
2022-09-13T14:41:30.237Z,53.60
2022-09-13T14:44:28.656Z,54.30
2022-09-13T14:47:15.364Z,53.20
2022-09-13T14:49:49.253Z,53.80
2022-09-13T14:52:36.459Z,54.20
2022-09-13T14:55:09.862Z,53.60
2022-09-13T14:57:40.486Z,53.70
2022-09-13T15:00:18.514Z,54.20
2022-09-13T15:03:11.979Z,53.70
2022-09-13T15:05:40.273Z,53.60
2022-09-13T15:08:26.591Z,55.10
2022-09-13T15:10:56.762Z,54.90
2022-09-13T15:13:23.734Z,54.80
2022-09-13T15:15:50.923Z,54.60
2022-09-13T15:18:20.861Z,55.00
2022-09-13T15:21:02.022Z,55.70
2022-09-13T15:23:36.606Z,55.00
2022-09-13T15:26:10.311Z,55.30
2022-09-13T15:28:48.870Z,56.70
2022-09-13T15:31:27.098Z,57.10
2022-09-13T15:34:22.662Z,57.40
2022-09-13T15:37:01.583Z,57.00
2022-09-13T15:39:28.892Z,56.50
2022-09-13T15:41:58.811Z,56.50
2022-09-13T15:44:26.710Z,56.50
2022-09-13T15:46:56.086Z,56.80
2022-09-13T15:49:26.523Z,57.70
2022-09-13T15:51:55.436Z,57.90
2022-09-13T15:54:25.172Z,58.40
2022-09-13T15:56:53.071Z,58.80
2022-09-13T15:59:22.019Z,59.80
2022-09-13T16:01:51.106Z,60.40
2022-09-13T16:04:18.512Z,61.10
2022-09-13T16:06:46.075Z,61.10
2022-09-13T16:09:20.761Z,61.30
2022-09-13T16:11:48.626Z,61.70
2022-09-13T16:14:16.550Z,62.70
2022-09-13T16:16:44.558Z,63.20
2022-09-13T16:19:16.838Z,64.40
2022-09-13T16:21:44.018Z,64.30
2022-09-13T16:24:11.159Z,64.40
2022-09-13T16:26:38.113Z,65.00
2022-09-13T16:29:05.221Z,65.40
2022-09-13T16:31:32.516Z,65.70
2022-09-13T16:33:59.606Z,66.00
2022-09-13T16:36:28.781Z,68.90
2022-09-13T16:38:56.619Z,71.00
2022-09-13T16:41:23.988Z,70.40
2022-09-13T16:43:50.845Z,72.00
2022-09-13T16:46:18.265Z,75.00
2022-09-13T16:48:45.317Z,75.30
2022-09-13T16:51:13.376Z,77.20
2022-09-13T16:53:42.897Z,76.00
2022-09-13T16:56:12.199Z,77.60
2022-09-13T16:58:46.672Z,76.60
2022-09-13T17:01:16.239Z,78.40
2022-09-13T17:03:43.586Z,78.20
2022-09-13T17:06:13.961Z,77.50
2022-09-13T17:08:43.445Z,77.20
2022-09-13T17:11:12.825Z,77.70
2022-09-13T17:13:41.572Z,77.80
2022-09-13T17:16:46.339Z,77.80
2022-09-13T17:19:25.493Z,77.60
2022-09-13T17:21:53.654Z,78.00
2022-09-13T17:24:20.765Z,78.30
2022-09-13T17:26:47.727Z,78.10
2022-09-13T17:29:15.214Z,77.60
2022-09-13T17:31:43.605Z,78.20
2022-09-13T17:34:11.766Z,78.10
2022-09-13T17:36:39.921Z,77.30
2022-09-13T17:39:07.218Z,76.50
2022-09-13T17:41:34.665Z,77.40
2022-09-13T17:44:01.715Z,78.50
2022-09-13T17:46:30.186Z,78.70
2022-09-13T17:48:59.740Z,79.10
2022-09-13T17:51:29.079Z,79.40
2022-09-13T17:54:04.807Z,79.50
2022-09-13T17:56:36.168Z,80.00
2022-09-13T17:59:12.147Z,80.60
2022-09-13T18:01:41.746Z,80.50
2022-09-13T18:04:10.080Z,80.80
2022-09-13T18:06:40.590Z,80.90
2022-09-13T18:09:07.621Z,81.10
2022-09-13T18:11:34.508Z,81.30
2022-09-13T18:14:01.802Z,81.20
2022-09-13T18:16:29.815Z,81.10
2022-09-13T18:18:58.228Z,81.00
2022-09-13T18:21:26.599Z,80.80
2022-09-13T18:23:58.219Z,80.80
2022-09-13T18:26:26.820Z,80.70
2022-09-13T18:28:59.306Z,80.90
2022-09-13T18:31:26.977Z,80.90
2022-09-13T18:33:57.601Z,81.10
2022-09-13T18:36:25.948Z,82.00
2022-09-13T18:38:53.390Z,82.20
2022-09-13T18:41:23.208Z,82.30
2022-09-13T18:43:55.385Z,82.10
2022-09-13T18:46:25.443Z,81.50
2022-09-13T18:48:54.976Z,82.00
2022-09-13T18:51:25.538Z,82.10
2022-09-13T18:53:53.014Z,82.00
2022-09-13T18:56:23.484Z,82.10
2022-09-13T18:58:52.516Z,82.40
2022-09-13T19:01:27.938Z,82.50
2022-09-13T19:04:00.713Z,82.90
2022-09-13T19:06:40.010Z,83.30
2022-09-13T19:09:08.527Z,83.60
2022-09-13T19:11:48.423Z,83.90
2022-09-13T19:14:23.182Z,84.50
2022-09-13T19:16:51.562Z,84.80
2022-09-13T19:19:19.123Z,85.50
2022-09-13T19:21:46.389Z,85.70
2022-09-13T19:24:18.799Z,85.90
2022-09-13T19:26:48.776Z,85.70
2022-09-13T19:29:18.052Z,85.80
2022-09-13T19:31:50.812Z,85.90
2022-09-13T19:34:19.660Z,86.10
2022-09-13T19:36:49.139Z,86.10
2022-09-13T19:39:16.381Z,86.30
2022-09-13T19:41:43.670Z,86.50
2022-09-13T19:44:13.162Z,86.50
2022-09-13T19:46:42.224Z,86.60
2022-09-13T19:49:13.779Z,87.00
2022-09-13T19:51:41.638Z,87.10
2022-09-13T19:54:12.724Z,87.20
2022-09-13T19:56:43.059Z,86.80
2022-09-13T19:59:13.517Z,87.00
2022-09-13T20:01:43.045Z,87.60
2022-09-13T20:04:13.232Z,88.20
2022-09-13T20:06:46.215Z,87.50
2022-09-13T20:09:15.132Z,86.80
2022-09-13T20:11:45.511Z,86.50
2022-09-13T20:14:14.925Z,87.10
2022-09-13T20:16:45.626Z,87.80
2022-09-13T20:22:10.142Z,88.30
2022-09-13T20:24:37.334Z,88.60
2022-09-13T20:27:04.617Z,88.10
2022-09-13T20:29:31.818Z,87.60
2022-09-13T20:32:00.257Z,87.10
2022-09-13T20:34:29.082Z,87.10
2022-09-13T20:36:56.319Z,86.40
2022-09-13T20:39:23.289Z,86.10
2022-09-13T20:41:50.847Z,86.20
2022-09-13T20:44:17.997Z,86.10
2022-09-13T20:46:46.051Z,86.20
2022-09-13T20:49:13.051Z,86.60
2022-09-13T20:51:40.008Z,86.40
2022-09-13T20:54:07.667Z,86.60
2022-09-13T20:56:35.378Z,87.10
2022-09-13T20:59:02.932Z,87.20
2022-09-13T21:01:31.035Z,87.70
2022-09-13T21:03:59.124Z,88.10
2022-09-13T21:06:28.380Z,88.40
2022-09-13T21:08:59.780Z,88.80
2022-09-13T21:11:34.785Z,89.40
2022-09-13T21:14:07.033Z,89.80
2022-09-13T21:16:39.611Z,90.00
2022-09-13T21:19:06.634Z,90.10
2022-09-13T21:21:35.742Z,90.50
2022-09-13T21:24:04.694Z,91.00
2022-09-13T21:26:32.345Z,90.70
2022-09-13T21:29:00.070Z,90.90
2022-09-13T21:31:29.170Z,91.10
2022-09-13T21:34:04.056Z,91.30
2022-09-13T21:36:34.633Z,91.50
2022-09-13T21:39:02.101Z,91.60
2022-09-13T21:41:29.345Z,91.80
2022-09-13T21:43:56.225Z,91.90
2022-09-13T21:46:25.723Z,91.90
2022-09-13T21:48:55.485Z,91.80
2022-09-13T21:51:31.059Z,91.70
2022-09-13T21:53:59.581Z,91.80
2022-09-13T21:56:28.448Z,92.20
2022-09-13T21:59:00.210Z,92.20
2022-09-13T22:01:32.359Z,92.20
2022-09-13T22:04:00.433Z,92.20
2022-09-13T22:06:32.624Z,92.30
2022-09-13T22:09:02.067Z,92.30
2022-09-13T22:11:31.388Z,92.30
2022-09-13T22:13:59.785Z,92.60
2022-09-13T22:16:30.405Z,92.60
2022-09-13T22:19:08.703Z,92.60
2022-09-13T22:21:38.606Z,92.40
2022-09-13T22:24:06.923Z,92.30
2022-09-13T22:26:36.556Z,92.40
2022-09-13T22:29:03.812Z,92.70
2022-09-13T22:31:33.936Z,92.90
2022-09-13T22:34:01.664Z,92.90
2022-09-13T22:36:28.957Z,92.90
2022-09-13T22:38:56.194Z,93.00
2022-09-13T22:41:25.845Z,92.90
2022-09-13T22:43:52.668Z,93.00
2022-09-13T22:46:20.995Z,93.20
2022-09-13T22:48:48.188Z,93.30
2022-09-13T22:51:17.874Z,93.40
2022-09-13T22:53:46.761Z,93.40
2022-09-13T22:56:19.103Z,93.50
2022-09-13T22:58:46.500Z,93.70
2022-09-13T23:01:18.576Z,93.80
2022-09-13T23:03:47.208Z,93.90
2022-09-13T23:06:18.761Z,94.30
2022-09-13T23:08:46.535Z,94.30
2022-09-13T23:11:26.763Z,94.70
2022-09-13T23:13:55.720Z,95.10
2022-09-13T23:16:37.460Z,95.40
2022-09-13T23:19:04.770Z,94.90
2022-09-13T23:21:34.656Z,95.00
2022-09-13T23:24:02.798Z,94.90
2022-09-13T23:26:29.945Z,94.80
2022-09-13T23:28:58.829Z,94.70
2022-09-13T23:31:28.539Z,94.70
2022-09-13T23:33:57.910Z,94.60
2022-09-13T23:36:28.274Z,94.70
2022-09-13T23:38:57.235Z,95.20
2022-09-13T23:41:25.933Z,95.30
2022-09-13T23:43:54.031Z,95.50
2022-09-13T23:46:21.615Z,95.80
2022-09-13T23:48:48.689Z,96.00
2022-09-13T23:51:18.042Z,96.20
2022-09-13T23:53:45.735Z,96.40
2022-09-13T23:56:13.564Z,96.50
2022-09-13T23:58:40.938Z,96.40
